Algoma, Wisconsin
Current Conditions -  °F | °C
As of 5:55 PM on Monday 20 Oct 2014 (Local Time) from KSUE Reporting Station
Overcast Overcast  
Wind Chill: 42°   Ceiling: 2800
Heat Index: 48°   Visibility: 10mi
Dew Point: 43°   Wind: 15mph
Humidity: 82%   Direction: 350°N
Pressure: 29.95"   Gusts: NA
Location:  44.61°N, 87.43°W
Report Text: KSUE 202255Z AUTO 35013KT 10SM SCT023 BKN028 OVC055 09/06 A2995 RMK AO1
Loading
Personal Weather Stations






























Interactive Weather Map New forecast layout! Learn more

10-Day Weather Forecast

Advertisements
Track Severe Weather on mobile